Time;durP1;ratioP1;P1;durP2;ratioP2;P2;SDS_P1;SDS_P2;PMS_P1;PMS_P2;Temp;Humidity;BMP_temperature;BMP_pressure;BME280_temperature;BME280_humidity;BME280_pressure;Samples;Min_cycle;Max_cycle;Signal;HPM_P1;HPM_P2
2023/04/16 00:00:20;;;;;;;8.10;4.72;;;;;;;6.46;97.04;102085.06;4890454;29;20067;-74
2023/04/16 00:02:46;;;;;;;11.20;4.40;;;;;;;6.46;97.89;102092.88;4902988;29;20066;-70
2023/04/16 00:05:13;;;;;;;14.70;4.50;;;;;;;6.47;97.16;102097.25;4866654;29;20032;-70
2023/04/16 00:07:38;;;;;;;15.38;4.85;;;;;;;6.47;nan;102092.91;4895541;29;20044;-75
2023/04/16 00:10:06;;;;;;;15.07;4.78;;;;;;;6.47;97.23;102098.13;4878358;29;20052;-75
2023/04/16 00:12:31;;;;;;;18.42;4.97;;;;;;;6.48;97.68;102089.47;4899248;29;20383;-75
2023/04/16 00:14:56;;;;;;;17.20;4.50;;;;;;;6.50;97.73;102093.00;4873953;29;20139;-75
2023/04/16 00:17:22;;;;;;;13.75;4.90;;;;;;;6.49;98.01;102095.56;4868222;29;20049;-74
2023/04/16 00:19:48;;;;;;;15.82;4.60;;;;;;;6.49;97.74;102096.44;4868712;29;20091;-75
2023/04/16 00:22:14;;;;;;;12.68;4.88;;;;;;;6.50;97.82;102092.13;4910758;29;20047;-75
2023/04/16 00:24:39;;;;;;;15.55;5.15;;;;;;;6.51;97.77;102099.09;4856758;29;20545;-75
2023/04/16 00:27:05;;;;;;;15.98;5.13;;;;;;;6.50;98.02;102098.19;4871200;29;20099;-71
2023/04/16 00:29:32;;;;;;;11.77;4.68;;;;;;;6.51;98.32;102093.88;4894302;29;20122;-70
2023/04/16 00:31:58;;;;;;;18.77;5.70;;;;;;;6.52;97.96;102101.75;4899906;29;20478;-75
2023/04/16 00:34:23;;;;;;;16.38;5.03;;;;;;;6.51;98.01;102086.94;4865798;29;20269;-75
2023/04/16 00:36:48;;;;;;;14.90;5.28;;;;;;;6.51;99.10;102093.88;4883876;29;20043;-71
2023/04/16 00:39:14;;;;;;;17.30;6.50;;;;;;;6.51;98.99;102092.16;4894968;29;20408;-71
2023/04/16 00:41:40;;;;;;;13.77;4.65;;;;;;;6.53;98.82;102089.59;4886221;29;20044;-70
2023/04/16 00:44:05;;;;;;;15.40;5.57;;;;;;;6.53;99.62;102093.06;4874771;29;20120;-71
2023/04/16 00:46:35;;;;;;;19.20;5.60;;;;;;;6.54;99.12;102089.63;4884085;29;20041;-74
2023/04/16 00:49:04;;;;;;;18.08;5.75;;;;;;;6.54;99.18;102089.63;4893340;29;20040;-71
2023/04/16 00:51:30;;;;;;;9.20;5.00;;;;;;;6.56;98.80;102087.91;4886225;29;20052;-75
2023/04/16 00:53:56;;;;;;;18.77;5.68;;;;;;;6.59;99.56;102092.34;4871111;29;20091;-75
2023/04/16 00:56:23;;;;;;;13.88;5.25;;;;;;;6.57;98.88;102087.09;4894210;29;20063;-75
2023/04/16 00:58:49;;;;;;;14.55;5.55;;;;;;;6.58;99.97;102094.06;4901950;29;20040;-75
2023/04/16 01:01:16;;;;;;;15.07;5.82;;;;;;;6.61;99.73;102084.56;4906545;29;20040;-75
2023/04/16 01:03:47;;;;;;;18.88;6.50;;;;;;;6.62;99.88;102092.41;4868896;29;20068;-70
2023/04/16 01:06:12;;;;;;;21.73;6.97;;;;;;;6.61;100.00;102090.66;4879087;29;20040;-71
2023/04/16 01:08:39;;;;;;;18.10;6.78;;;;;;;6.61;100.00;102089.75;4881709;29;20100;-71
2023/04/16 01:11:05;;;;;;;17.42;6.85;;;;;;;6.63;100.00;102085.50;4898920;29;20531;-71
2023/04/16 01:13:30;;;;;;;17.80;7.40;;;;;;;6.61;100.00;102082.84;4881666;29;20055;-74
2023/04/16 01:15:56;;;;;;;17.55;7.28;;;;;;;6.61;100.00;102084.56;4883136;29;20374;-74
2023/04/16 01:18:22;;;;;;;19.50;6.95;;;;;;;6.62;100.00;102081.13;4880337;29;20569;-75
2023/04/16 01:20:49;;;;;;;16.25;7.35;;;;;;;6.62;100.00;102078.50;4900893;29;20032;-70
2023/04/16 01:23:14;;;;;;;19.00;7.10;;;;;;;6.61;100.00;102085.47;4882153;29;20677;-71
2023/04/16 01:25:40;;;;;;;23.40;6.68;;;;;;;6.63;100.00;102080.28;4894812;29;20045;-73
2023/04/16 01:28:06;;;;;;;18.52;8.45;;;;;;;6.62;100.00;102086.31;4900697;29;20802;-74
2023/04/16 01:30:32;;;;;;;16.52;7.50;;;;;;;6.63;100.00;102082.88;4880303;29;20057;-75
2023/04/16 01:32:57;;;;;;;17.70;7.90;;;;;;;6.64;100.00;102084.63;4872460;29;20569;-75
2023/04/16 01:35:23;;;;;;;16.65;7.72;;;;;;;6.62;100.00;102078.50;4909864;29;20045;-75
2023/04/16 01:37:53;;;;;;;15.32;8.05;;;;;;;6.64;100.00;102084.63;4881563;29;20048;-75
2023/04/16 01:40:18;;;;;;;19.42;8.25;;;;;;;6.63;100.00;102088.09;4914590;29;20441;-70
2023/04/16 01:42:44;;;;;;;21.38;8.43;;;;;;;6.63;100.00;102090.69;4911268;29;20134;-70
2023/04/16 01:45:10;;;;;;;16.77;8.52;;;;;;;6.63;100.00;102086.38;4874282;29;20024;-71
2023/04/16 01:47:35;;;;;;;25.73;8.32;;;;;;;6.63;100.00;102083.75;4934226;29;20554;-70
2023/04/16 01:50:02;;;;;;;20.67;8.10;;;;;;;6.63;100.00;102093.31;4899764;29;20067;-71
2023/04/16 01:52:28;;;;;;;22.80;8.68;;;;;;;6.61;100.00;102088.06;4893415;29;20131;-70
2023/04/16 01:54:53;;;;;;;15.55;7.65;;;;;;;6.65;100.00;102089.00;4893494;29;20464;-75
2023/04/16 01:57:18;;;;;;;25.65;7.55;;;;;;;6.64;100.00;102085.53;4868854;29;20064;-70
2023/04/16 01:59:44;;;;;;;19.95;8.63;;;;;;;6.66;100.00;102088.16;4914647;29;20044;-70
2023/04/16 02:02:11;;;;;;;16.33;8.30;;;;;;;6.66;100.00;102088.16;4895297;29;20568;-70
2023/04/16 02:04:37;;;;;;;14.35;7.85;;;;;;;6.68;100.00;102096.88;4893307;29;20047;-70
2023/04/16 02:07:04;;;;;;;19.13;8.63;;;;;;;6.68;100.00;102094.28;4868948;29;20135;-70
2023/04/16 02:09:30;;;;;;;20.10;8.45;;;;;;;6.69;100.00;102090.84;4884148;29;20122;-71
2023/04/16 02:11:55;;;;;;;17.23;8.40;;;;;;;6.67;100.00;102092.53;4867758;29;20084;-71
2023/04/16 02:14:24;;;;;;;15.50;9.13;;;;;;;6.66;100.00;102093.38;4897504;29;20431;-71
2023/04/16 02:16:51;;;;;;;16.35;8.73;;;;;;;6.68;100.00;102089.06;4883325;29;20035;-71
2023/04/16 02:19:16;;;;;;;19.98;8.48;;;;;;;6.68;100.00;102089.97;4883979;29;20040;-71
2023/04/16 02:21:42;;;;;;;19.67;9.43;;;;;;;6.68;100.00;102087.38;4901003;29;20044;-70
2023/04/16 02:24:07;;;;;;;16.25;8.10;;;;;;;6.70;100.00;102092.63;4899132;29;20122;-71
2023/04/16 02:26:33;;;;;;;15.05;8.50;;;;;;;6.70;100.00;102088.28;4901767;29;20046;-71
2023/04/16 02:28:58;;;;;;;20.88;9.18;;;;;;;6.70;100.00;102088.28;4877100;29;20039;-75
2023/04/16 02:31:24;;;;;;;19.05;8.15;;;;;;;6.70;100.00;102090.88;4895241;29;20384;-75
2023/04/16 02:33:49;;;;;;;18.42;8.50;;;;;;;6.71;100.00;102096.97;4886637;29;20461;-75
2023/04/16 02:36:15;;;;;;;16.40;8.30;;;;;;;6.71;100.00;102092.66;4912513;29;20413;-75
2023/04/16 02:38:40;;;;;;;20.83;9.02;;;;;;;6.70;100.00;102088.28;4900738;29;20032;-75
2023/04/16 02:41:07;;;;;;;16.33;8.48;;;;;;;6.71;100.00;102096.97;4884681;29;20036;-75
2023/04/16 02:43:32;;;;;;;15.57;8.23;;;;;;;6.69;100.00;102093.44;4896835;29;20124;-75
2023/04/16 02:45:58;;;;;;;19.83;9.38;;;;;;;6.67;100.00;102084.72;4902537;29;20488;-75
2023/04/16 02:48:23;;;;;;;21.60;9.15;;;;;;;6.70;100.00;102097.81;4868250;29;20049;-75
2023/04/16 02:50:49;;;;;;;20.58;8.98;;;;;;;6.69;100.00;102090.84;4867322;29;20048;-75
2023/04/16 02:53:15;;;;;;;19.98;9.32;;;;;;;6.70;100.00;102088.28;4906624;29;20134;-75
2023/04/16 02:55:40;;;;;;;18.95;9.38;;;;;;;6.68;100.00;102092.56;4874449;29;20386;-75
2023/04/16 02:58:06;;;;;;;19.15;9.05;;;;;;;6.70;100.00;102100.44;4907090;29;20047;-75
2023/04/16 03:00:31;;;;;;;19.45;9.10;;;;;;;6.70;100.00;102095.22;4880105;29;20035;-75
2023/04/16 03:02:56;;;;;;;16.77;8.85;;;;;;;6.72;100.00;102098.72;4875086;29;20660;-75
2023/04/16 03:05:22;;;;;;;18.00;8.93;;;;;;;6.71;100.00;102096.97;4888254;29;20513;-75
2023/04/16 03:07:49;;;;;;;21.40;11.10;;;;;;;6.72;100.00;102103.94;4882331;29;20039;-75
2023/04/16 03:10:15;;;;;;;21.02;12.02;;;;;;;6.70;100.00;102090.00;4886186;29;20488;-74
2023/04/16 03:12:40;;;;;;;23.25;12.43;;;;;;;6.70;100.00;102101.28;4893550;29;20042;-75
2023/04/16 03:15:06;;;;;;;28.95;11.63;;;;;;;6.73;100.00;102105.72;4902120;29;20052;-75
2023/04/16 03:17:32;;;;;;;25.83;13.13;;;;;;;6.71;100.00;102107.38;4891160;29;20428;-75
2023/04/16 03:19:57;;;;;;;24.30;11.85;;;;;;;6.71;100.00;102112.59;4881114;29;20059;-75
2023/04/16 03:22:23;;;;;;;22.95;11.60;;;;;;;6.71;100.00;102110.88;4899889;29;20053;-71
2023/04/16 03:24:48;;;;;;;22.52;11.30;;;;;;;6.71;100.00;102112.59;4885098;29;20468;-70
2023/04/16 03:27:14;;;;;;;22.52;11.25;;;;;;;6.71;100.00;102110.88;4916471;29;20107;-70
2023/04/16 03:29:40;;;;;;;22.45;11.30;;;;;;;6.72;100.00;102119.56;4901888;29;20039;-75
2023/04/16 03:32:05;;;;;;;24.42;11.13;;;;;;;6.71;100.00;102123.00;4882656;29;20437;-75
2023/04/16 03:34:31;;;;;;;23.75;10.82;;;;;;;6.70;100.00;102119.53;4879947;29;20050;-75
2023/04/16 03:36:57;;;;;;;24.98;11.15;;;;;;;6.70;100.00;102110.84;5109510;23;20035;-69
2023/04/16 03:44:58;;;;;;;23.02;11.40;;;;;;;6.71;100.00;102118.69;5414269;23;20026;-70
2023/04/16 03:47:23;;;;;;;28.60;12.30;;;;;;;6.71;100.00;102112.59;5354399;23;20026;-72
2023/04/16 03:57:34;;;;;;;27.02;13.05;;;;;;;6.69;100.00;102106.47;5386545;23;20034;-73
2023/04/16 04:00:00;;;;;;;29.27;14.05;;;;;;;6.73;100.00;102113.53;5116374;23;20066;-72
2023/04/16 04:02:25;;;;;;;26.77;13.93;;;;;;;6.73;100.00;102124.81;5172522;23;21374;-69
2023/04/16 04:07:26;;;;;;;32.25;16.15;;;;;;;6.73;100.00;102117.00;5448761;23;20045;-70
2023/04/16 04:09:51;;;;;;;27.80;16.27;;;;;;;6.69;100.00;102122.09;5216302;23;20015;-72
2023/04/16 04:15:05;;;;;;;31.23;16.88;;;;;;;6.71;100.00;102126.50;5167076;23;20058;-68
2023/04/16 04:17:30;;;;;;;33.55;18.02;;;;;;;6.68;100.00;102117.72;5104059;23;20928;-71
2023/04/16 04:19:56;;;;;;;40.17;18.58;;;;;;;6.68;100.00;102122.94;5361908;23;20026;-70
2023/04/16 04:22:22;;;;;;;33.03;18.38;;;;;;;6.64;100.00;102122.00;5119078;23;20407;-70
2023/04/16 04:24:50;;;;;;;38.72;19.88;;;;;;;6.68;100.00;102117.72;5521258;23;20031;-71
2023/04/16 04:27:15;;;;;;;34.55;18.65;;;;;;;6.70;100.00;102132.56;4940717;23;20053;-70
2023/04/16 04:29:42;;;;;;;36.28;18.00;;;;;;;6.71;100.00;102130.81;4868391;29;20056;-74
2023/04/16 04:32:07;;;;;;;34.13;19.00;;;;;;;6.70;100.00;102131.69;4861774;29;20100;-75
2023/04/16 04:34:32;;;;;;;33.75;18.02;;;;;;;6.71;100.00;102131.72;4862840;29;20049;-74
2023/04/16 04:36:58;;;;;;;29.83;18.05;;;;;;;6.73;100.00;102136.97;4891197;29;20442;-75
2023/04/16 04:39:23;;;;;;;35.20;19.05;;;;;;;6.74;100.00;102136.13;4866425;29;20056;-74
2023/04/16 04:41:49;;;;;;;30.90;17.83;;;;;;;6.75;100.00;102130.06;4877810;29;20048;-74
2023/04/16 04:44:15;;;;;;;31.60;16.70;;;;;;;6.76;100.00;102147.47;4846777;29;20045;-74
2023/04/16 04:46:40;;;;;;;31.88;16.65;;;;;;;6.75;100.00;102141.38;4875008;29;20107;-74
2023/04/16 04:49:06;;;;;;;27.85;16.55;;;;;;;6.73;100.00;102131.75;4891795;29;20052;-74
2023/04/16 04:51:31;;;;;;;26.70;15.68;;;;;;;6.75;100.00;102141.38;4858674;29;20052;-70
2023/04/16 04:53:57;;;;;;;34.05;16.52;;;;;;;6.71;100.00;102139.53;4846144;29;20045;-70
2023/04/16 04:56:22;;;;;;;29.23;16.48;;;;;;;6.73;100.00;102147.38;4861669;29;20526;-70
2023/04/16 04:58:51;;;;;;;27.63;15.60;;;;;;;6.70;100.00;102144.72;4878199;29;20469;-70
2023/04/16 05:01:16;;;;;;;31.40;15.90;;;;;;;6.69;100.00;102146.41;4873368;29;20431;-70
2023/04/16 05:03:42;;;;;;;32.60;16.75;;;;;;;6.69;100.00;102150.75;4876685;29;20041;-74
2023/04/16 05:06:08;;;;;;;27.40;16.15;;;;;;;6.68;100.00;102141.16;4873052;29;20055;-75
2023/04/16 05:08:33;;;;;;;32.38;15.95;;;;;;;6.68;100.00;102147.28;4844873;29;20057;-75
2023/04/16 05:11:03;;;;;;;28.00;16.40;;;;;;;6.69;100.00;102151.63;4860626;29;20036;-75
2023/04/16 05:13:28;;;;;;;33.33;16.83;;;;;;;6.68;100.00;102160.31;4860477;29;20049;-75
2023/04/16 05:15:54;;;;;;;30.90;16.08;;;;;;;6.67;100.00;102153.31;4860750;29;20458;-70
2023/04/16 05:18:19;;;;;;;32.63;15.60;;;;;;;6.67;100.00;102149.84;4861710;29;20041;-74
2023/04/16 05:20:45;;;;;;;30.30;16.50;;;;;;;6.66;100.00;102155.91;4845890;29;20041;-74
2023/04/16 05:23:10;;;;;;;33.08;16.42;;;;;;;6.65;100.00;102155.03;4869398;29;20192;-74
2023/04/16 05:25:36;;;;;;;32.30;16.45;;;;;;;6.66;100.00;102161.09;4875440;29;20037;-74
2023/04/16 05:28:01;;;;;;;31.80;16.52;;;;;;;6.65;100.00;102165.44;4861434;29;20084;-74
2023/04/16 05:30:26;;;;;;;32.60;16.48;;;;;;;6.65;100.00;102155.03;4845045;29;20482;-75
2023/04/16 05:32:52;;;;;;;33.55;16.27;;;;;;;6.68;100.00;102168.13;4876481;29;20049;-74
2023/04/16 05:35:17;;;;;;;36.00;17.25;;;;;;;6.69;100.00;102163.78;4849198;29;20045;-71
2023/04/16 05:37:43;;;;;;;33.30;17.48;;;;;;;6.70;100.00;102165.56;4877650;29;20056;-70
2023/04/16 05:40:08;;;;;;;31.52;16.98;;;;;;;6.69;100.00;102172.47;4842385;29;20034;-70
2023/04/16 05:42:34;;;;;;;37.95;18.45;;;;;;;6.69;100.00;102166.38;4894714;29;20401;-70
2023/04/16 05:45:03;;;;;;;36.85;19.10;;;;;;;6.67;100.00;102174.16;4845293;29;20368;-71
2023/04/16 05:47:29;;;;;;;35.22;18.85;;;;;;;6.70;100.00;102173.38;4869431;29;20040;-71
2023/04/16 05:49:55;;;;;;;35.10;17.98;;;;;;;6.69;100.00;102169.88;4854344;29;20057;-70
2023/04/16 05:52:20;;;;;;;35.95;18.00;;;;;;;6.69;100.00;102172.47;4866792;29;20105;-74
2023/04/16 05:54:45;;;;;;;39.85;19.75;;;;;;;6.70;100.00;102179.44;4858599;29;20101;-74
2023/04/16 05:57:12;;;;;;;39.38;18.60;;;;;;;6.71;100.00;102176.00;4890722;29;20033;-74
2023/04/16 05:59:38;;;;;;;40.78;19.85;;;;;;;6.73;100.00;102178.66;4876875;29;20029;-75
2023/04/16 06:02:03;;;;;;;38.40;19.38;;;;;;;6.72;100.00;102176.88;4876932;29;20051;-75
2023/04/16 06:04:29;;;;;;;40.83;20.08;;;;;;;6.73;100.00;102181.25;4862083;29;20036;-74
2023/04/16 06:06:55;;;;;;;48.10;20.80;;;;;;;6.76;100.00;102187.41;4875492;29;20068;-74
2023/04/16 06:09:20;;;;;;;44.60;20.77;;;;;;;6.74;100.00;102183.03;4874040;29;20054;-74
2023/04/16 06:11:46;;;;;;;36.92;19.98;;;;;;;6.76;100.00;102189.16;4877270;29;20037;-74
2023/04/16 06:14:12;;;;;;;42.83;20.70;;;;;;;6.75;100.00;102183.06;4844183;29;20060;-71
2023/04/16 06:16:37;;;;;;;42.25;20.77;;;;;;;6.78;100.00;102189.19;4880818;29;20048;-70
2023/04/16 06:19:02;;;;;;;44.10;21.08;;;;;;;6.77;100.00;102185.72;4859944;29;20495;-71
2023/04/16 06:21:28;;;;;;;48.00;21.02;;;;;;;6.79;100.00;102188.34;4876803;29;20448;-71
2023/04/16 06:23:55;;;;;;;41.33;20.90;;;;;;;6.80;100.00;102192.72;4859504;29;20415;-70
2023/04/16 06:26:20;;;;;;;50.28;21.75;;;;;;;6.81;100.00;102195.38;4835452;29;20120;-70
2023/04/16 06:28:45;;;;;;;51.33;21.70;;;;;;;6.83;100.00;102193.66;4886891;29;20056;-70
2023/04/16 06:31:13;;;;;;;48.00;21.63;;;;;;;6.82;100.00;102196.25;4844746;29;20128;-71
2023/04/16 06:33:39;;;;;;;43.08;21.60;;;;;;;6.84;100.00;102203.25;4861425;29;20236;-75
2023/04/16 06:36:05;;;;;;;44.70;21.15;;;;;;;6.86;100.00;102216.31;4858664;29;20513;-70
2023/04/16 06:38:30;;;;;;;46.38;21.80;;;;;;;6.87;100.00;102208.53;4841318;29;20585;-71
2023/04/16 06:40:55;;;;;;;39.95;21.75;;;;;;;6.91;100.00;102213.00;4871574;29;20033;-70
2023/04/16 06:43:21;;;;;;;47.63;22.58;;;;;;;6.92;100.00;102216.47;4868420;29;20041;-71
2023/04/16 06:45:47;;;;;;;40.70;21.65;;;;;;;6.93;100.00;102213.91;4862611;29;20033;-71
2023/04/16 06:48:12;;;;;;;52.33;22.40;;;;;;;6.94;100.00;102210.47;4844035;29;20041;-74
2023/04/16 06:50:39;;;;;;;44.03;21.73;;;;;;;6.97;100.00;102222.69;4874884;29;20100;-74
2023/04/16 06:53:04;;;;;;;41.28;20.45;;;;;;;6.99;100.00;102222.72;4873324;29;20044;-74
2023/04/16 06:55:30;;;;;;;45.83;21.38;;;;;;;7.02;100.00;102218.47;4863393;29;20045;-74
2023/04/16 06:57:55;;;;;;;44.58;21.15;;;;;;;7.05;100.00;102233.31;4861297;29;20045;-73
2023/04/16 07:00:21;;;;;;;40.35;21.27;;;;;;;7.07;100.00;102231.63;4875290;29;20458;-74
2023/04/16 07:02:46;;;;;;;42.08;20.08;;;;;;;7.08;100.00;102230.78;4891788;29;20163;-74
2023/04/16 07:05:12;;;;;;;46.55;20.70;;;;;;;7.12;100.00;102235.22;4845094;29;20092;-74
2023/04/16 07:07:37;;;;;;;42.40;21.27;;;;;;;7.13;100.00;102234.38;4864954;29;20041;-74
2023/04/16 07:10:04;;;;;;;41.70;20.77;;;;;;;7.16;100.00;102242.28;4863597;29;20084;-74
2023/04/16 07:12:33;;;;;;;41.30;21.20;;;;;;;7.19;100.00;102238.88;4859946;29;20056;-74
2023/04/16 07:14:58;;;;;;;40.83;19.67;;;;;;;7.22;100.00;102238.94;4853974;29;20156;-74
2023/04/16 07:17:25;;;;;;;42.70;20.88;;;;;;;7.22;100.00;102242.41;4875437;29;20044;-74
2023/04/16 07:19:50;;;;;;;39.38;19.60;;;;;;;7.23;100.00;102245.94;4851423;29;20077;-74
2023/04/16 07:22:16;;;;;;;37.65;20.60;;;;;;;7.24;100.00;102255.50;4898664;29;20115;-74
2023/04/16 07:24:41;;;;;;;38.72;19.73;;;;;;;7.25;100.00;102252.06;4868351;29;20045;-74
2023/04/16 07:27:07;;;;;;;34.25;19.20;;;;;;;7.27;100.00;102250.38;4863368;29;20484;-74
2023/04/16 07:29:33;;;;;;;36.47;18.80;;;;;;;7.29;100.00;102254.75;4879441;29;20057;-74
2023/04/16 07:31:59;;;;;;;38.40;19.77;;;;;;;7.34;100.00;102261.81;4876289;29;20033;-74
2023/04/16 07:34:24;;;;;;;40.70;19.65;;;;;;;7.34;100.00;102262.72;4891968;29;20123;-74
2023/04/16 07:36:50;;;;;;;40.53;19.42;;;;;;;7.35;100.00;102258.38;4858315;29;20047;-71
2023/04/16 07:39:15;;;;;;;36.03;19.88;;;;;;;7.35;100.00;102261.84;4863015;29;20161;-71
2023/04/16 07:41:42;;;;;;;35.17;19.85;;;;;;;7.37;100.00;102264.50;4864525;29;20115;-71
2023/04/16 07:44:08;;;;;;;40.88;19.20;;;;;;;7.39;100.00;102275.88;4849772;29;20036;-70
2023/04/16 07:46:33;;;;;;;42.63;20.00;;;;;;;7.38;100.00;102268.88;4880532;29;20044;-71
2023/04/16 07:48:59;;;;;;;37.15;19.40;;;;;;;7.41;100.00;102279.38;4861639;29;20059;-70
2023/04/16 07:51:25;;;;;;;36.97;18.95;;;;;;;7.40;100.00;102282.84;4876963;29;20116;-74
2023/04/16 07:53:50;;;;;;;37.67;20.50;;;;;;;7.40;100.00;102277.63;4870280;29;20071;-74
2023/04/16 07:56:15;;;;;;;39.17;19.67;;;;;;;7.41;100.00;102282.88;4862692;29;20120;-74
2023/04/16 07:58:41;;;;;;;41.00;18.90;;;;;;;7.44;100.00;102282.97;4846503;29;20061;-74
2023/04/16 08:01:06;;;;;;;43.03;20.15;;;;;;;7.46;100.00;102283.88;4880182;29;20093;-74
2023/04/16 08:03:32;;;;;;;39.22;19.73;;;;;;;7.49;100.00;102284.81;4873636;29;20479;-73
2023/04/16 08:05:57;;;;;;;33.63;18.52;;;;;;;7.50;100.00;102290.06;4863984;29;20065;-74
2023/04/16 08:08:23;;;;;;;38.38;19.75;;;;;;;7.52;100.00;102290.97;4879507;29;20359;-75
2023/04/16 08:10:48;;;;;;;37.42;19.92;;;;;;;7.53;100.00;102297.03;4858446;29;20063;-74
2023/04/16 08:13:14;;;;;;;41.80;20.42;;;;;;;7.54;100.00;102299.72;4875195;29;20450;-75
2023/04/16 08:15:39;;;;;;;35.72;21.85;;;;;;;7.53;100.00;102295.34;4862870;29;20048;-75
2023/04/16 08:18:06;;;;;;;39.60;20.38;;;;;;;7.56;100.00;102300.63;4877833;29;20401;-74
2023/04/16 08:20:32;;;;;;;38.13;20.08;;;;;;;7.59;100.00;102305.03;4883187;29;20041;-74
2023/04/16 08:22:58;;;;;;;41.22;19.50;;;;;;;7.64;100.00;102308.63;4847572;29;20071;-74
2023/04/16 08:25:23;;;;;;;39.38;20.10;;;;;;;7.66;100.00;102316.50;4856341;29;20069;-74
2023/04/16 08:27:49;;;;;;;41.03;20.38;;;;;;;7.66;100.00;102317.38;4862252;29;20067;-75
2023/04/16 08:30:15;;;;;;;39.42;20.45;;;;;;;7.67;100.00;102319.16;4875549;29;20059;-75
2023/04/16 08:32:42;;;;;;;38.42;20.52;;;;;;;7.69;100.00;102316.59;4862538;29;20045;-75
2023/04/16 08:35:08;;;;;;;41.90;19.83;;;;;;;7.72;100.00;102317.53;4878474;29;20500;-74
2023/04/16 08:37:33;;;;;;;38.72;20.20;;;;;;;7.74;100.00;102320.16;4880012;29;20135;-75
2023/04/16 08:39:59;;;;;;;38.40;19.83;;;;;;;7.76;100.00;102319.38;4845255;29;20148;-75
2023/04/16 08:42:52;;;;;;;42.97;20.95;;;;;;;7.81;100.00;102324.69;4869047;29;20057;-75
2023/04/16 08:45:18;;;;;;;38.45;20.98;;;;;;;7.84;100.00;102327.38;4856403;29;20041;-75
2023/04/16 08:47:53;;;;;;;41.22;21.05;;;;;;;7.92;100.00;102328.44;4877491;29;20378;-74
2023/04/16 08:50:23;;;;;;;37.25;20.30;;;;;;;7.94;100.00;102331.97;4876073;29;20041;-74
2023/04/16 08:52:57;;;;;;;45.00;21.27;;;;;;;8.02;100.00;102331.28;4850320;29;20175;-70
2023/04/16 08:55:28;;;;;;;37.70;20.40;;;;;;;8.07;100.00;102340.06;4893296;29;20041;-75
2023/04/16 08:57:57;;;;;;;42.65;20.42;;;;;;;8.10;100.00;102332.31;4893877;29;20387;-75
2023/04/16 09:00:23;;;;;;;39.97;20.10;;;;;;;8.15;100.00;102333.31;4880593;29;20462;-74
2023/04/16 09:02:50;;;;;;;43.15;21.17;;;;;;;8.20;100.00;102342.09;4877953;29;20048;-74
2023/04/16 09:05:16;;;;;;;39.38;19.15;;;;;;;8.22;100.00;102335.19;4889023;29;20092;-75
2023/04/16 09:07:46;;;;;;;41.65;21.00;;;;;;;8.25;100.00;102337.88;4892957;29;20044;-75
2023/04/16 09:10:13;;;;;;;41.07;20.67;;;;;;;8.24;100.00;102338.72;4872643;29;20044;-71
2023/04/16 09:12:41;;;;;;;35.47;20.13;;;;;;;8.29;100.00;102347.53;4877565;29;20041;-71
2023/04/16 09:15:09;;;;;;;36.63;19.35;;;;;;;8.30;100.00;102338.88;4876023;29;20044;-71
2023/04/16 09:17:35;;;;;;;36.40;20.92;;;;;;;8.33;100.00;102349.38;4877568;29;20068;-71
2023/04/16 09:20:00;;;;;;;42.38;20.77;;;;;;;8.36;100.00;102345.97;4833338;29;20080;-71
2023/04/16 09:22:26;;;;;;;39.17;20.92;;;;;;;8.40;100.00;102344.28;4892238;29;20417;-71
2023/04/16 09:24:51;;;;;;;39.53;21.83;;;;;;;8.43;100.00;102349.56;4861125;29;20546;-71
2023/04/16 09:27:16;;;;;;;36.13;21.10;;;;;;;8.47;100.00;102348.81;4860804;29;20045;-71
2023/04/16 09:29:42;;;;;;;36.65;21.00;;;;;;;8.48;100.00;102364.53;4861005;29;20410;-71
2023/04/16 09:32:09;;;;;;;37.33;21.10;;;;;;;8.51;100.00;102355.88;4861556;29;20494;-70
2023/04/16 09:34:53;;;;;;;39.03;21.23;;;;;;;8.52;100.00;102357.66;4892305;29;20120;-71
2023/04/16 09:37:19;;;;;;;40.17;21.65;;;;;;;8.54;100.00;102361.16;4874216;29;20132;-71
2023/04/16 09:39:53;;;;;;;36.35;21.13;;;;;;;8.57;100.00;102368.19;4876976;29;20143;-71
2023/04/16 09:42:37;;;;;;;44.85;22.42;;;;;;;8.60;100.00;102374.34;4868426;29;20071;-70
2023/04/16 09:45:02;;;;;;;37.55;20.92;;;;;;;8.64;100.00;102376.16;4875624;29;20043;-71
2023/04/16 09:47:39;;;;;;;35.03;21.25;;;;;;;8.67;100.00;102376.22;4889074;29;20128;-71
2023/04/16 09:50:07;;;;;;;40.42;23.60;;;;;;;8.74;100.00;102374.63;4888158;29;20070;-71
2023/04/16 09:52:36;;;;;;;38.17;21.25;;;;;;;8.80;100.00;102371.28;4880495;29;20139;-75
2023/04/16 09:55:01;;;;;;;38.15;21.70;;;;;;;8.86;99.71;102376.59;4890241;29;20041;-75
2023/04/16 09:57:28;;;;;;;34.47;21.98;;;;;;;8.95;100.00;102382.03;4862728;29;20143;-71
2023/04/16 10:00:00;;;;;;;36.03;21.35;;;;;;;8.98;99.94;102376.00;4847381;29;20100;-71
2023/04/16 10:02:27;;;;;;;36.85;21.88;;;;;;;9.11;99.75;102369.25;4888634;29;20041;-70
2023/04/16 10:04:52;;;;;;;37.13;22.67;;;;;;;9.14;99.47;102366.69;4848194;29;20091;-71
2023/04/16 10:07:27;;;;;;;39.45;22.85;;;;;;;9.17;98.55;102379.84;4857760;29;20048;-71
2023/04/16 10:09:54;;;;;;;38.40;21.40;;;;;;;9.19;97.61;102375.50;4889885;29;20048;-71
2023/04/16 10:12:21;;;;;;;31.10;20.13;;;;;;;9.19;97.45;102378.13;4883300;29;20037;-71
2023/04/16 10:14:46;;;;;;;34.25;22.85;;;;;;;9.22;97.27;102380.78;4876721;29;20091;-71
2023/04/16 10:17:12;;;;;;;35.22;21.58;;;;;;;9.16;96.47;102386.78;4895423;29;20483;-71
2023/04/16 10:19:38;;;;;;;34.90;21.88;;;;;;;9.13;96.74;102388.47;4894883;29;20132;-71
2023/04/16 10:22:04;;;;;;;36.83;21.65;;;;;;;9.11;96.88;102384.97;4869115;29;20045;-71
2023/04/16 10:24:32;;;;;;;38.97;22.80;;;;;;;9.12;97.50;102384.97;4863857;29;20045;-71
2023/04/16 10:26:58;;;;;;;37.22;22.70;;;;;;;9.11;97.51;102387.56;4856056;29;20434;-71
2023/04/16 10:29:25;;;;;;;37.28;22.15;;;;;;;9.12;97.13;102381.47;4844937;29;20060;-70
2023/04/16 10:31:52;;;;;;;37.17;22.75;;;;;;;9.22;97.31;102387.75;4878045;29;20071;-71
2023/04/16 10:34:19;;;;;;;35.30;21.70;;;;;;;9.26;97.18;102382.59;4876843;29;20759;-71
2023/04/16 10:36:49;;;;;;;36.55;21.88;;;;;;;9.27;96.33;102384.38;4846103;29;20044;-71
2023/04/16 10:39:20;;;;;;;33.90;22.30;;;;;;;9.30;95.99;102384.44;4876150;29;20406;-71
2023/04/16 10:41:46;;;;;;;36.28;21.98;;;;;;;9.31;96.46;102386.19;4875827;29;20044;-71
2023/04/16 10:44:11;;;;;;;37.25;22.58;;;;;;;9.36;96.06;102391.50;4860287;29;20053;-71
2023/04/16 10:46:39;;;;;;;32.15;22.17;;;;;;;9.43;96.32;102390.75;4858601;29;20056;-70
2023/04/16 10:49:23;;;;;;;38.72;22.60;;;;;;;9.50;96.47;102389.16;4885617;29;20068;-70
2023/04/16 10:51:56;;;;;;;37.58;23.15;;;;;;;9.56;96.01;102384.00;4865234;29;20461;-70
2023/04/16 10:54:28;;;;;;;37.65;23.05;;;;;;;9.67;96.61;102386.81;4887695;29;20073;-71
2023/04/16 10:57:03;;;;;;;32.88;22.05;;;;;;;9.74;95.76;102379.94;4867845;29;20047;-71
2023/04/16 10:59:34;;;;;;;33.42;21.40;;;;;;;9.78;95.19;102377.38;4863811;29;20041;-72
2023/04/16 11:02:05;;;;;;;35.15;22.27;;;;;;;9.76;94.33;102381.72;4863655;29;20510;-71
2023/04/16 11:04:36;;;;;;;35.30;20.40;;;;;;;9.74;92.83;102380.84;4891198;29;20484;-71
2023/04/16 11:07:14;;;;;;;;;;;;;;;9.80;93.65;102382.66;4852229;29;20041;-70
2023/04/16 11:09:58;;;;;;;36.03;22.55;;;;;;;9.73;93.80;102386.03;4889439;29;19920;-71
2023/04/16 11:12:45;;;;;;;36.10;20.45;;;;;;;9.72;93.97;102382.53;4892744;29;20041;-71
2023/04/16 11:15:12;;;;;;;44.30;23.13;;;;;;;9.74;93.67;102374.69;4889008;29;20374;-75
2023/04/16 11:17:50;;;;;;;38.97;23.67;;;;;;;9.80;94.59;102377.44;4861361;29;20037;-75
2023/04/16 11:20:17;;;;;;;35.30;21.55;;;;;;;9.83;93.06;102378.34;4872331;29;20434;-75
2023/04/16 11:22:44;;;;;;;36.05;21.20;;;;;;;9.83;92.12;102378.34;4848184;29;20043;-74
2023/04/16 11:25:10;;;;;;;35.25;21.23;;;;;;;9.92;93.99;102380.22;4872771;29;20052;-75
2023/04/16 11:27:35;;;;;;;35.08;22.05;;;;;;;10.03;94.64;102373.44;4861034;29;20463;-70
2023/04/16 11:30:08;;;;;;;35.05;22.10;;;;;;;10.17;93.74;102373.63;4844832;29;20418;-71